sensor_id;sensor_type;location;lat;lon;timestamp;P1;durP1;ratioP1;P2;durP2;ratioP2
41921;SDS011;27609;51.002;5.354;2023-02-15T00:01:31;37.75;;;19.98;;
41921;SDS011;27609;51.002;5.354;2023-02-15T00:03:58;43.42;;;19.08;;
41921;SDS011;27609;51.002;5.354;2023-02-15T00:06:23;40.60;;;20.63;;
41921;SDS011;27609;51.002;5.354;2023-02-15T00:08:49;33.38;;;17.73;;
41921;SDS011;27609;51.002;5.354;2023-02-15T00:11:16;39.13;;;19.00;;
41921;SDS011;27609;51.002;5.354;2023-02-15T00:14:04;32.03;;;18.08;;
41921;SDS011;27609;51.002;5.354;2023-02-15T00:16:36;41.83;;;18.65;;
41921;SDS011;27609;51.002;5.354;2023-02-15T00:19:02;42.58;;;18.67;;
41921;SDS011;27609;51.002;5.354;2023-02-15T00:21:29;42.03;;;18.92;;
41921;SDS011;27609;51.002;5.354;2023-02-15T00:23:56;38.80;;;19.55;;
41921;SDS011;27609;51.002;5.354;2023-02-15T00:26:23;34.47;;;17.13;;
41921;SDS011;27609;51.002;5.354;2023-02-15T00:28:50;36.72;;;17.85;;
41921;SDS011;27609;51.002;5.354;2023-02-15T00:31:16;39.35;;;18.77;;
41921;SDS011;27609;51.002;5.354;2023-02-15T00:33:41;41.28;;;18.92;;
41921;SDS011;27609;51.002;5.354;2023-02-15T00:36:08;35.58;;;17.45;;
41921;SDS011;27609;51.002;5.354;2023-02-15T00:38:35;43.33;;;20.38;;
41921;SDS011;27609;51.002;5.354;2023-02-15T00:41:02;37.65;;;19.25;;
41921;SDS011;27609;51.002;5.354;2023-02-15T00:43:30;39.25;;;19.63;;
41921;SDS011;27609;51.002;5.354;2023-02-15T00:45:57;36.15;;;18.52;;
41921;SDS011;27609;51.002;5.354;2023-02-15T00:48:23;38.08;;;18.48;;
41921;SDS011;27609;51.002;5.354;2023-02-15T00:50:49;34.30;;;18.27;;
41921;SDS011;27609;51.002;5.354;2023-02-15T00:53:18;36.60;;;19.60;;
41921;SDS011;27609;51.002;5.354;2023-02-15T00:55:45;38.33;;;18.33;;
41921;SDS011;27609;51.002;5.354;2023-02-15T00:58:11;37.80;;;19.10;;
41921;SDS011;27609;51.002;5.354;2023-02-15T01:00:37;39.28;;;18.90;;
41921;SDS011;27609;51.002;5.354;2023-02-15T01:03:04;43.72;;;21.42;;
41921;SDS011;27609;51.002;5.354;2023-02-15T01:05:30;40.10;;;19.98;;
41921;SDS011;27609;51.002;5.354;2023-02-15T01:07:57;47.92;;;20.98;;
41921;SDS011;27609;51.002;5.354;2023-02-15T01:10:30;43.00;;;21.52;;
41921;SDS011;27609;51.002;5.354;2023-02-15T01:12:56;48.25;;;22.75;;
41921;SDS011;27609;51.002;5.354;2023-02-15T01:15:23;44.17;;;21.55;;
41921;SDS011;27609;51.002;5.354;2023-02-15T01:17:49;41.85;;;20.55;;
41921;SDS011;27609;51.002;5.354;2023-02-15T01:20:22;41.65;;;21.00;;
41921;SDS011;27609;51.002;5.354;2023-02-15T01:22:51;45.33;;;21.23;;
41921;SDS011;27609;51.002;5.354;2023-02-15T01:25:17;40.95;;;21.15;;
41921;SDS011;27609;51.002;5.354;2023-02-15T01:27:44;45.00;;;20.65;;
41921;SDS011;27609;51.002;5.354;2023-02-15T01:30:10;36.95;;;19.13;;
41921;SDS011;27609;51.002;5.354;2023-02-15T01:32:36;36.80;;;20.02;;
41921;SDS011;27609;51.002;5.354;2023-02-15T01:35:02;41.17;;;19.65;;
41921;SDS011;27609;51.002;5.354;2023-02-15T01:37:30;42.25;;;19.20;;
41921;SDS011;27609;51.002;5.354;2023-02-15T01:39:56;44.00;;;21.00;;
41921;SDS011;27609;51.002;5.354;2023-02-15T01:42:23;42.85;;;19.63;;
41921;SDS011;27609;51.002;5.354;2023-02-15T01:44:54;44.00;;;19.80;;
41921;SDS011;27609;51.002;5.354;2023-02-15T01:50:12;45.45;;;19.77;;
41921;SDS011;27609;51.002;5.354;2023-02-15T01:55:39;42.72;;;19.33;;
41921;SDS011;27609;51.002;5.354;2023-02-15T01:58:08;37.35;;;18.58;;
41921;SDS011;27609;51.002;5.354;2023-02-15T02:00:34;41.90;;;18.60;;
41921;SDS011;27609;51.002;5.354;2023-02-15T02:03:00;41.38;;;19.67;;
41921;SDS011;27609;51.002;5.354;2023-02-15T02:05:28;41.55;;;19.88;;
41921;SDS011;27609;51.002;5.354;2023-02-15T02:07:56;47.50;;;19.13;;
41921;SDS011;27609;51.002;5.354;2023-02-15T02:10:23;42.55;;;21.77;;
41921;SDS011;27609;51.002;5.354;2023-02-15T02:12:52;41.78;;;20.40;;
41921;SDS011;27609;51.002;5.354;2023-02-15T02:16:10;42.55;;;20.52;;
41921;SDS011;27609;51.002;5.354;2023-02-15T02:22:24;39.05;;;19.55;;
41921;SDS011;27609;51.002;5.354;2023-02-15T02:29:52;43.50;;;20.30;;
41921;SDS011;27609;51.002;5.354;2023-02-15T02:43:05;41.75;;;19.52;;
41921;SDS011;27609;51.002;5.354;2023-02-15T02:45:42;42.38;;;22.10;;
41921;SDS011;27609;51.002;5.354;2023-02-15T02:48:24;37.83;;;18.98;;
41921;SDS011;27609;51.002;5.354;2023-02-15T02:50:52;41.97;;;18.20;;
41921;SDS011;27609;51.002;5.354;2023-02-15T02:53:18;42.25;;;21.00;;
41921;SDS011;27609;51.002;5.354;2023-02-15T02:55:49;45.00;;;20.92;;
41921;SDS011;27609;51.002;5.354;2023-02-15T03:00:53;48.42;;;22.45;;
41921;SDS011;27609;51.002;5.354;2023-02-15T03:05:47;45.33;;;21.65;;
41921;SDS011;27609;51.002;5.354;2023-02-15T03:08:18;47.25;;;21.45;;
41921;SDS011;27609;51.002;5.354;2023-02-15T03:10:51;44.75;;;21.45;;
41921;SDS011;27609;51.002;5.354;2023-02-15T03:13:19;51.40;;;22.40;;
41921;SDS011;27609;51.002;5.354;2023-02-15T03:15:45;50.42;;;22.40;;
41921;SDS011;27609;51.002;5.354;2023-02-15T03:18:31;42.70;;;20.85;;
41921;SDS011;27609;51.002;5.354;2023-02-15T03:21:02;44.05;;;21.35;;
41921;SDS011;27609;51.002;5.354;2023-02-15T03:23:31;32.42;;;18.58;;
41921;SDS011;27609;51.002;5.354;2023-02-15T03:26:03;40.47;;;21.23;;
41921;SDS011;27609;51.002;5.354;2023-02-15T03:28:52;42.95;;;20.92;;
41921;SDS011;27609;51.002;5.354;2023-02-15T03:31:18;47.78;;;21.73;;
41921;SDS011;27609;51.002;5.354;2023-02-15T03:33:51;43.28;;;20.02;;
41921;SDS011;27609;51.002;5.354;2023-02-15T03:38:54;43.30;;;20.90;;
41921;SDS011;27609;51.002;5.354;2023-02-15T03:41:26;42.13;;;22.98;;
41921;SDS011;27609;51.002;5.354;2023-02-15T03:44:07;50.70;;;23.52;;
41921;SDS011;27609;51.002;5.354;2023-02-15T03:46:58;48.92;;;19.50;;
41921;SDS011;27609;51.002;5.354;2023-02-15T03:52:53;46.97;;;21.33;;
41921;SDS011;27609;51.002;5.354;2023-02-15T03:55:20;51.10;;;21.23;;
41921;SDS011;27609;51.002;5.354;2023-02-15T03:57:46;45.35;;;21.27;;
41921;SDS011;27609;51.002;5.354;2023-02-15T04:00:31;43.47;;;21.30;;
41921;SDS011;27609;51.002;5.354;2023-02-15T04:03:23;42.25;;;21.02;;
41921;SDS011;27609;51.002;5.354;2023-02-15T04:05:57;39.05;;;20.33;;
41921;SDS011;27609;51.002;5.354;2023-02-15T04:08:22;45.05;;;21.58;;
41921;SDS011;27609;51.002;5.354;2023-02-15T04:11:08;51.70;;;20.58;;
41921;SDS011;27609;51.002;5.354;2023-02-15T04:13:33;46.22;;;22.42;;
41921;SDS011;27609;51.002;5.354;2023-02-15T04:15:59;44.85;;;22.13;;
41921;SDS011;27609;51.002;5.354;2023-02-15T04:18:28;50.65;;;23.23;;
41921;SDS011;27609;51.002;5.354;2023-02-15T04:21:20;45.72;;;21.38;;
41921;SDS011;27609;51.002;5.354;2023-02-15T04:24:06;52.83;;;21.98;;
41921;SDS011;27609;51.002;5.354;2023-02-15T04:26:51;48.67;;;22.35;;
41921;SDS011;27609;51.002;5.354;2023-02-15T04:29:20;49.20;;;23.42;;
41921;SDS011;27609;51.002;5.354;2023-02-15T04:31:46;44.88;;;19.48;;
41921;SDS011;27609;51.002;5.354;2023-02-15T04:34:12;41.42;;;20.27;;
41921;SDS011;27609;51.002;5.354;2023-02-15T04:36:38;41.05;;;19.70;;
41921;SDS011;27609;51.002;5.354;2023-02-15T04:39:04;40.67;;;21.23;;
41921;SDS011;27609;51.002;5.354;2023-02-15T04:41:31;39.80;;;20.65;;
41921;SDS011;27609;51.002;5.354;2023-02-15T04:43:57;36.03;;;19.35;;
41921;SDS011;27609;51.002;5.354;2023-02-15T04:46:24;40.47;;;21.63;;
41921;SDS011;27609;51.002;5.354;2023-02-15T04:48:50;39.70;;;18.98;;
41921;SDS011;27609;51.002;5.354;2023-02-15T04:51:15;43.75;;;21.33;;
41921;SDS011;27609;51.002;5.354;2023-02-15T04:53:41;41.67;;;21.23;;
41921;SDS011;27609;51.002;5.354;2023-02-15T04:56:07;48.78;;;22.58;;
41921;SDS011;27609;51.002;5.354;2023-02-15T04:58:32;44.70;;;21.15;;
41921;SDS011;27609;51.002;5.354;2023-02-15T05:00:58;42.13;;;22.00;;
41921;SDS011;27609;51.002;5.354;2023-02-15T05:03:24;47.03;;;21.75;;
41921;SDS011;27609;51.002;5.354;2023-02-15T05:05:50;45.35;;;23.40;;
41921;SDS011;27609;51.002;5.354;2023-02-15T05:08:16;49.30;;;24.00;;
41921;SDS011;27609;51.002;5.354;2023-02-15T05:10:42;44.95;;;22.25;;
41921;SDS011;27609;51.002;5.354;2023-02-15T05:13:08;47.03;;;22.20;;
41921;SDS011;27609;51.002;5.354;2023-02-15T05:15:33;44.28;;;21.67;;
41921;SDS011;27609;51.002;5.354;2023-02-15T05:17:59;47.83;;;22.90;;
41921;SDS011;27609;51.002;5.354;2023-02-15T05:20:26;52.83;;;22.23;;
41921;SDS011;27609;51.002;5.354;2023-02-15T05:22:55;48.08;;;22.80;;
41921;SDS011;27609;51.002;5.354;2023-02-15T05:25:20;40.38;;;21.10;;
41921;SDS011;27609;51.002;5.354;2023-02-15T05:28:04;40.25;;;20.27;;
41921;SDS011;27609;51.002;5.354;2023-02-15T05:31:04;48.22;;;23.00;;
41921;SDS011;27609;51.002;5.354;2023-02-15T05:33:32;48.22;;;22.00;;
41921;SDS011;27609;51.002;5.354;2023-02-15T05:35:58;47.95;;;22.13;;
41921;SDS011;27609;51.002;5.354;2023-02-15T05:38:24;55.60;;;25.25;;
41921;SDS011;27609;51.002;5.354;2023-02-15T05:40:50;53.10;;;26.42;;
41921;SDS011;27609;51.002;5.354;2023-02-15T05:43:16;54.00;;;25.90;;
41921;SDS011;27609;51.002;5.354;2023-02-15T05:45:49;54.30;;;24.75;;
41921;SDS011;27609;51.002;5.354;2023-02-15T05:48:16;51.38;;;25.83;;
41921;SDS011;27609;51.002;5.354;2023-02-15T05:50:43;50.50;;;26.63;;
41921;SDS011;27609;51.002;5.354;2023-02-15T05:53:09;62.72;;;27.20;;
41921;SDS011;27609;51.002;5.354;2023-02-15T05:55:39;56.90;;;26.38;;
41921;SDS011;27609;51.002;5.354;2023-02-15T05:58:05;51.15;;;24.83;;
41921;SDS011;27609;51.002;5.354;2023-02-15T06:00:32;56.17;;;24.77;;
41921;SDS011;27609;51.002;5.354;2023-02-15T06:02:59;53.53;;;23.85;;
41921;SDS011;27609;51.002;5.354;2023-02-15T06:05:24;44.45;;;22.23;;
41921;SDS011;27609;51.002;5.354;2023-02-15T06:07:50;45.00;;;22.80;;
41921;SDS011;27609;51.002;5.354;2023-02-15T06:10:16;53.13;;;24.23;;
41921;SDS011;27609;51.002;5.354;2023-02-15T06:12:41;54.97;;;25.35;;
41921;SDS011;27609;51.002;5.354;2023-02-15T06:15:09;52.08;;;23.95;;
41921;SDS011;27609;51.002;5.354;2023-02-15T06:17:34;50.90;;;24.88;;
41921;SDS011;27609;51.002;5.354;2023-02-15T06:20:00;53.28;;;24.23;;
41921;SDS011;27609;51.002;5.354;2023-02-15T06:22:26;52.78;;;25.98;;
41921;SDS011;27609;51.002;5.354;2023-02-15T06:24:51;52.97;;;24.23;;
41921;SDS011;27609;51.002;5.354;2023-02-15T06:27:17;59.58;;;26.30;;
41921;SDS011;27609;51.002;5.354;2023-02-15T06:29:43;60.38;;;25.95;;
41921;SDS011;27609;51.002;5.354;2023-02-15T06:32:08;49.75;;;25.33;;
41921;SDS011;27609;51.002;5.354;2023-02-15T06:34:34;52.53;;;27.52;;
41921;SDS011;27609;51.002;5.354;2023-02-15T06:37:00;59.70;;;26.25;;
41921;SDS011;27609;51.002;5.354;2023-02-15T06:39:25;57.25;;;25.85;;
41921;SDS011;27609;51.002;5.354;2023-02-15T06:41:51;62.00;;;26.27;;
41921;SDS011;27609;51.002;5.354;2023-02-15T06:44:17;56.58;;;25.95;;
41921;SDS011;27609;51.002;5.354;2023-02-15T06:46:42;44.40;;;23.13;;
41921;SDS011;27609;51.002;5.354;2023-02-15T06:49:08;55.75;;;24.60;;
41921;SDS011;27609;51.002;5.354;2023-02-15T06:51:33;60.25;;;26.67;;
41921;SDS011;27609;51.002;5.354;2023-02-15T06:53:59;64.72;;;27.08;;
41921;SDS011;27609;51.002;5.354;2023-02-15T06:56:25;57.05;;;26.60;;
41921;SDS011;27609;51.002;5.354;2023-02-15T06:58:51;52.72;;;25.52;;
41921;SDS011;27609;51.002;5.354;2023-02-15T07:01:17;47.60;;;24.67;;
41921;SDS011;27609;51.002;5.354;2023-02-15T07:03:43;44.50;;;22.33;;
41921;SDS011;27609;51.002;5.354;2023-02-15T07:06:09;56.85;;;26.75;;
41921;SDS011;27609;51.002;5.354;2023-02-15T07:08:35;55.88;;;27.67;;
41921;SDS011;27609;51.002;5.354;2023-02-15T07:11:02;58.15;;;28.13;;
41921;SDS011;27609;51.002;5.354;2023-02-15T07:13:47;57.90;;;26.02;;
41921;SDS011;27609;51.002;5.354;2023-02-15T07:16:13;53.55;;;26.20;;
41921;SDS011;27609;51.002;5.354;2023-02-15T07:18:39;60.90;;;27.60;;
41921;SDS011;27609;51.002;5.354;2023-02-15T07:21:05;62.90;;;28.23;;
41921;SDS011;27609;51.002;5.354;2023-02-15T07:23:34;64.57;;;31.42;;
41921;SDS011;27609;51.002;5.354;2023-02-15T07:26:04;64.32;;;31.85;;
41921;SDS011;27609;51.002;5.354;2023-02-15T07:28:30;61.53;;;32.05;;
41921;SDS011;27609;51.002;5.354;2023-02-15T07:30:57;58.38;;;30.80;;
41921;SDS011;27609;51.002;5.354;2023-02-15T07:33:23;55.78;;;27.70;;
41921;SDS011;27609;51.002;5.354;2023-02-15T07:35:53;52.15;;;25.38;;
41921;SDS011;27609;51.002;5.354;2023-02-15T07:38:21;45.55;;;25.02;;
41921;SDS011;27609;51.002;5.354;2023-02-15T07:40:47;41.35;;;23.58;;
41921;SDS011;27609;51.002;5.354;2023-02-15T07:43:13;45.08;;;23.52;;
41921;SDS011;27609;51.002;5.354;2023-02-15T07:45:39;46.25;;;22.90;;
41921;SDS011;27609;51.002;5.354;2023-02-15T07:48:06;46.83;;;25.35;;
41921;SDS011;27609;51.002;5.354;2023-02-15T07:50:32;52.90;;;27.33;;
41921;SDS011;27609;51.002;5.354;2023-02-15T07:52:58;48.53;;;27.30;;
41921;SDS011;27609;51.002;5.354;2023-02-15T07:55:26;47.35;;;26.55;;
41921;SDS011;27609;51.002;5.354;2023-02-15T07:57:52;53.17;;;27.77;;
41921;SDS011;27609;51.002;5.354;2023-02-15T08:00:19;44.08;;;26.15;;
41921;SDS011;27609;51.002;5.354;2023-02-15T08:02:53;47.60;;;26.98;;
41921;SDS011;27609;51.002;5.354;2023-02-15T08:05:39;43.10;;;24.73;;
41921;SDS011;27609;51.002;5.354;2023-02-15T08:08:06;39.72;;;24.60;;
41921;SDS011;27609;51.002;5.354;2023-02-15T08:10:33;38.08;;;23.17;;
41921;SDS011;27609;51.002;5.354;2023-02-15T08:13:18;42.83;;;25.95;;
41921;SDS011;27609;51.002;5.354;2023-02-15T08:15:48;41.28;;;25.40;;
41921;SDS011;27609;51.002;5.354;2023-02-15T08:18:14;44.72;;;24.50;;
41921;SDS011;27609;51.002;5.354;2023-02-15T08:20:40;42.63;;;25.33;;
41921;SDS011;27609;51.002;5.354;2023-02-15T08:23:05;50.90;;;26.58;;
41921;SDS011;27609;51.002;5.354;2023-02-15T08:25:31;38.60;;;24.83;;
41921;SDS011;27609;51.002;5.354;2023-02-15T08:27:57;43.15;;;27.63;;
41921;SDS011;27609;51.002;5.354;2023-02-15T08:30:22;40.75;;;25.77;;
41921;SDS011;27609;51.002;5.354;2023-02-15T08:32:48;47.40;;;28.33;;
41921;SDS011;27609;51.002;5.354;2023-02-15T08:35:14;48.95;;;28.30;;
41921;SDS011;27609;51.002;5.354;2023-02-15T08:37:39;52.90;;;31.02;;
41921;SDS011;27609;51.002;5.354;2023-02-15T08:40:05;52.97;;;32.15;;
41921;SDS011;27609;51.002;5.354;2023-02-15T08:42:32;45.33;;;29.95;;
41921;SDS011;27609;51.002;5.354;2023-02-15T08:44:58;54.85;;;30.48;;
41921;SDS011;27609;51.002;5.354;2023-02-15T08:47:24;53.75;;;30.20;;
41921;SDS011;27609;51.002;5.354;2023-02-15T08:49:49;54.03;;;30.52;;
41921;SDS011;27609;51.002;5.354;2023-02-15T08:52:16;47.15;;;26.30;;
41921;SDS011;27609;51.002;5.354;2023-02-15T08:54:42;47.65;;;25.42;;
41921;SDS011;27609;51.002;5.354;2023-02-15T08:57:08;50.67;;;26.30;;
41921;SDS011;27609;51.002;5.354;2023-02-15T08:59:35;51.35;;;27.88;;
41921;SDS011;27609;51.002;5.354;2023-02-15T09:02:01;42.13;;;25.27;;
41921;SDS011;27609;51.002;5.354;2023-02-15T09:04:28;41.83;;;24.98;;
41921;SDS011;27609;51.002;5.354;2023-02-15T09:06:53;41.70;;;24.20;;
41921;SDS011;27609;51.002;5.354;2023-02-15T09:09:20;47.95;;;23.98;;
41921;SDS011;27609;51.002;5.354;2023-02-15T09:11:47;41.88;;;23.23;;
41921;SDS011;27609;51.002;5.354;2023-02-15T09:14:15;47.10;;;22.83;;
41921;SDS011;27609;51.002;5.354;2023-02-15T09:16:45;41.35;;;23.98;;
41921;SDS011;27609;51.002;5.354;2023-02-15T09:19:13;49.22;;;23.80;;
41921;SDS011;27609;51.002;5.354;2023-02-15T09:21:40;37.95;;;22.27;;
41921;SDS011;27609;51.002;5.354;2023-02-15T09:24:10;41.72;;;25.20;;
41921;SDS011;27609;51.002;5.354;2023-02-15T09:26:38;45.63;;;23.20;;
41921;SDS011;27609;51.002;5.354;2023-02-15T09:29:06;40.17;;;23.35;;
41921;SDS011;27609;51.002;5.354;2023-02-15T09:31:36;48.15;;;23.77;;
41921;SDS011;27609;51.002;5.354;2023-02-15T09:34:03;44.70;;;22.50;;
41921;SDS011;27609;51.002;5.354;2023-02-15T09:36:30;39.70;;;20.70;;
41921;SDS011;27609;51.002;5.354;2023-02-15T09:38:58;34.72;;;20.83;;
41921;SDS011;27609;51.002;5.354;2023-02-15T09:49:57;38.22;;;21.23;;
41921;SDS011;27609;51.002;5.354;2023-02-15T09:52:49;35.97;;;21.52;;
41921;SDS011;27609;51.002;5.354;2023-02-15T10:11:15;40.05;;;20.25;;
41921;SDS011;27609;51.002;5.354;2023-02-15T10:22:36;36.13;;;20.60;;
41921;SDS011;27609;51.002;5.354;2023-02-15T10:27:58;36.05;;;20.38;;
41921;SDS011;27609;51.002;5.354;2023-02-15T10:30:52;40.75;;;21.63;;
41921;SDS011;27609;51.002;5.354;2023-02-15T10:33:40;36.08;;;20.48;;
41921;SDS011;27609;51.002;5.354;2023-02-15T10:39:16;42.70;;;21.67;;
41921;SDS011;27609;51.002;5.354;2023-02-15T10:41:51;35.00;;;21.10;;
41921;SDS011;27609;51.002;5.354;2023-02-15T10:58:32;32.95;;;19.52;;
41921;SDS011;27609;51.002;5.354;2023-02-15T11:01:18;32.70;;;18.85;;
41921;SDS011;27609;51.002;5.354;2023-02-15T11:06:51;34.95;;;18.35;;
41921;SDS011;27609;51.002;5.354;2023-02-15T11:09:21;31.73;;;19.58;;
41921;SDS011;27609;51.002;5.354;2023-02-15T11:11:50;31.52;;;18.52;;
41921;SDS011;27609;51.002;5.354;2023-02-15T11:17:22;33.47;;;18.70;;
41921;SDS011;27609;51.002;5.354;2023-02-15T11:22:41;40.28;;;19.92;;
41921;SDS011;27609;51.002;5.354;2023-02-15T11:28:03;32.25;;;18.83;;
41921;SDS011;27609;51.002;5.354;2023-02-15T11:30:49;43.60;;;18.42;;
41921;SDS011;27609;51.002;5.354;2023-02-15T11:33:23;30.55;;;18.60;;
41921;SDS011;27609;51.002;5.354;2023-02-15T11:36:05;31.27;;;18.48;;
41921;SDS011;27609;51.002;5.354;2023-02-15T11:38:34;30.77;;;18.27;;
41921;SDS011;27609;51.002;5.354;2023-02-15T11:41:09;33.03;;;19.30;;
41921;SDS011;27609;51.002;5.354;2023-02-15T11:43:46;33.47;;;18.90;;
41921;SDS011;27609;51.002;5.354;2023-02-15T11:46:20;28.35;;;18.33;;
41921;SDS011;27609;51.002;5.354;2023-02-15T11:48:47;33.47;;;17.98;;
41921;SDS011;27609;51.002;5.354;2023-02-15T11:51:20;31.95;;;17.02;;
41921;SDS011;27609;51.002;5.354;2023-02-15T11:53:47;29.83;;;18.08;;
41921;SDS011;27609;51.002;5.354;2023-02-15T11:56:14;34.60;;;17.95;;
41921;SDS011;27609;51.002;5.354;2023-02-15T12:01:15;28.60;;;17.42;;
41921;SDS011;27609;51.002;5.354;2023-02-15T12:03:51;31.58;;;17.85;;
41921;SDS011;27609;51.002;5.354;2023-02-15T12:06:25;31.85;;;16.88;;
41921;SDS011;27609;51.002;5.354;2023-02-15T12:08:59;36.30;;;18.20;;
41921;SDS011;27609;51.002;5.354;2023-02-15T12:11:31;28.73;;;17.77;;
41921;SDS011;27609;51.002;5.354;2023-02-15T12:14:07;32.88;;;16.27;;
41921;SDS011;27609;51.002;5.354;2023-02-15T12:16:41;31.13;;;18.23;;
41921;SDS011;27609;51.002;5.354;2023-02-15T12:22:25;30.40;;;17.77;;
41921;SDS011;27609;51.002;5.354;2023-02-15T12:24:55;33.40;;;17.95;;
41921;SDS011;27609;51.002;5.354;2023-02-15T12:27:26;33.05;;;17.00;;
41921;SDS011;27609;51.002;5.354;2023-02-15T12:30:01;34.03;;;18.35;;
41921;SDS011;27609;51.002;5.354;2023-02-15T12:32:36;33.00;;;18.38;;
41921;SDS011;27609;51.002;5.354;2023-02-15T12:35:26;35.85;;;18.88;;
41921;SDS011;27609;51.002;5.354;2023-02-15T12:38:03;33.22;;;18.05;;
41921;SDS011;27609;51.002;5.354;2023-02-15T12:40:30;32.20;;;18.15;;
41921;SDS011;27609;51.002;5.354;2023-02-15T12:42:58;31.33;;;18.33;;
41921;SDS011;27609;51.002;5.354;2023-02-15T12:50:47;33.20;;;18.65;;
41921;SDS011;27609;51.002;5.354;2023-02-15T12:53:20;33.38;;;17.27;;
41921;SDS011;27609;51.002;5.354;2023-02-15T12:56:04;35.70;;;18.10;;
41921;SDS011;27609;51.002;5.354;2023-02-15T12:58:41;37.25;;;18.45;;
41921;SDS011;27609;51.002;5.354;2023-02-15T13:01:19;36.80;;;19.38;;
41921;SDS011;27609;51.002;5.354;2023-02-15T13:03:55;33.47;;;17.75;;
41921;SDS011;27609;51.002;5.354;2023-02-15T13:06:35;39.50;;;19.30;;
41921;SDS011;27609;51.002;5.354;2023-02-15T13:11:49;37.05;;;18.05;;
41921;SDS011;27609;51.002;5.354;2023-02-15T13:14:19;38.35;;;19.33;;
41921;SDS011;27609;51.002;5.354;2023-02-15T13:16:47;35.20;;;18.35;;
41921;SDS011;27609;51.002;5.354;2023-02-15T13:19:19;38.30;;;19.08;;
41921;SDS011;27609;51.002;5.354;2023-02-15T13:21:53;37.50;;;18.77;;
41921;SDS011;27609;51.002;5.354;2023-02-15T13:24:27;35.95;;;19.58;;
41921;SDS011;27609;51.002;5.354;2023-02-15T13:26:57;35.70;;;19.83;;
41921;SDS011;27609;51.002;5.354;2023-02-15T13:29:25;38.38;;;19.40;;
41921;SDS011;27609;51.002;5.354;2023-02-15T13:31:54;35.97;;;18.55;;
41921;SDS011;27609;51.002;5.354;2023-02-15T13:34:23;32.28;;;18.63;;
41921;SDS011;27609;51.002;5.354;2023-02-15T13:42:32;34.17;;;19.13;;
41921;SDS011;27609;51.002;5.354;2023-02-15T13:45:15;30.95;;;17.73;;
41921;SDS011;27609;51.002;5.354;2023-02-15T13:48:00;31.98;;;18.92;;
41921;SDS011;27609;51.002;5.354;2023-02-15T13:59:11;36.13;;;19.95;;
41921;SDS011;27609;51.002;5.354;2023-02-15T14:07:56;35.13;;;19.27;;
41921;SDS011;27609;51.002;5.354;2023-02-15T14:16:03;39.92;;;20.23;;
41921;SDS011;27609;51.002;5.354;2023-02-15T14:21:21;41.60;;;20.77;;
41921;SDS011;27609;51.002;5.354;2023-02-15T14:27:01;35.63;;;19.65;;
41921;SDS011;27609;51.002;5.354;2023-02-15T14:29:51;38.00;;;20.27;;
41921;SDS011;27609;51.002;5.354;2023-02-15T14:32:27;37.67;;;20.05;;
41921;SDS011;27609;51.002;5.354;2023-02-15T14:34:58;35.45;;;20.98;;
41921;SDS011;27609;51.002;5.354;2023-02-15T14:48:50;37.83;;;21.33;;
41921;SDS011;27609;51.002;5.354;2023-02-15T14:59:37;37.35;;;20.65;;
41921;SDS011;27609;51.002;5.354;2023-02-15T15:02:40;37.72;;;22.58;;
41921;SDS011;27609;51.002;5.354;2023-02-15T15:18:04;34.55;;;21.60;;
41921;SDS011;27609;51.002;5.354;2023-02-15T15:34:19;38.35;;;23.58;;
41921;SDS011;27609;51.002;5.354;2023-02-15T15:42:31;42.88;;;24.40;;
41921;SDS011;27609;51.002;5.354;2023-02-15T15:51:00;42.95;;;23.50;;
41921;SDS011;27609;51.002;5.354;2023-02-15T15:53:32;37.65;;;22.45;;
41921;SDS011;27609;51.002;5.354;2023-02-15T15:56:05;43.00;;;24.38;;
41921;SDS011;27609;51.002;5.354;2023-02-15T15:58:35;38.35;;;22.70;;
41921;SDS011;27609;51.002;5.354;2023-02-15T16:01:07;46.17;;;24.52;;
41921;SDS011;27609;51.002;5.354;2023-02-15T16:03:36;39.17;;;23.05;;
41921;SDS011;27609;51.002;5.354;2023-02-15T16:06:02;49.38;;;23.38;;
41921;SDS011;27609;51.002;5.354;2023-02-15T16:08:32;45.38;;;22.95;;
41921;SDS011;27609;51.002;5.354;2023-02-15T16:11:01;47.30;;;24.27;;
41921;SDS011;27609;51.002;5.354;2023-02-15T16:13:41;45.15;;;24.38;;
41921;SDS011;27609;51.002;5.354;2023-02-15T16:16:08;46.03;;;25.05;;
41921;SDS011;27609;51.002;5.354;2023-02-15T16:18:36;47.70;;;24.27;;
41921;SDS011;27609;51.002;5.354;2023-02-15T16:21:12;50.42;;;25.67;;
41921;SDS011;27609;51.002;5.354;2023-02-15T16:28:57;44.58;;;23.90;;
41921;SDS011;27609;51.002;5.354;2023-02-15T16:31:24;53.08;;;27.45;;
41921;SDS011;27609;51.002;5.354;2023-02-15T16:33:52;48.60;;;26.38;;
41921;SDS011;27609;51.002;5.354;2023-02-15T16:36:20;53.35;;;26.00;;
41921;SDS011;27609;51.002;5.354;2023-02-15T16:41:12;52.95;;;26.10;;
41921;SDS011;27609;51.002;5.354;2023-02-15T16:43:46;45.92;;;26.23;;
41921;SDS011;27609;51.002;5.354;2023-02-15T16:49:14;51.50;;;28.00;;
41921;SDS011;27609;51.002;5.354;2023-02-15T16:52:09;52.80;;;26.17;;
41921;SDS011;27609;51.002;5.354;2023-02-15T16:54:40;56.50;;;27.57;;
41921;SDS011;27609;51.002;5.354;2023-02-15T16:57:15;53.03;;;28.92;;
41921;SDS011;27609;51.002;5.354;2023-02-15T16:59:48;60.58;;;30.65;;
41921;SDS011;27609;51.002;5.354;2023-02-15T17:02:19;63.65;;;29.65;;
41921;SDS011;27609;51.002;5.354;2023-02-15T17:05:06;63.03;;;32.17;;
41921;SDS011;27609;51.002;5.354;2023-02-15T17:07:48;56.58;;;30.23;;
41921;SDS011;27609;51.002;5.354;2023-02-15T17:10:30;52.97;;;31.05;;
41921;SDS011;27609;51.002;5.354;2023-02-15T17:13:09;56.92;;;30.58;;
41921;SDS011;27609;51.002;5.354;2023-02-15T17:15:37;53.22;;;29.48;;
41921;SDS011;27609;51.002;5.354;2023-02-15T17:18:08;61.55;;;31.90;;
41921;SDS011;27609;51.002;5.354;2023-02-15T17:20:44;58.15;;;28.90;;
41921;SDS011;27609;51.002;5.354;2023-02-15T17:23:22;56.58;;;29.98;;
41921;SDS011;27609;51.002;5.354;2023-02-15T17:25:51;62.90;;;29.92;;
41921;SDS011;27609;51.002;5.354;2023-02-15T17:28:20;58.40;;;29.08;;
41921;SDS011;27609;51.002;5.354;2023-02-15T17:30:53;56.75;;;28.40;;
41921;SDS011;27609;51.002;5.354;2023-02-15T17:36:04;61.65;;;28.45;;
41921;SDS011;27609;51.002;5.354;2023-02-15T17:38:39;63.20;;;28.60;;
41921;SDS011;27609;51.002;5.354;2023-02-15T17:41:25;69.00;;;29.02;;
41921;SDS011;27609;51.002;5.354;2023-02-15T17:43:56;53.88;;;28.60;;
41921;SDS011;27609;51.002;5.354;2023-02-15T17:46:22;56.28;;;29.02;;
41921;SDS011;27609;51.002;5.354;2023-02-15T17:48:50;53.58;;;28.00;;
41921;SDS011;27609;51.002;5.354;2023-02-15T17:51:17;55.67;;;29.17;;
41921;SDS011;27609;51.002;5.354;2023-02-15T17:53:44;57.63;;;28.58;;
41921;SDS011;27609;51.002;5.354;2023-02-15T17:56:29;58.50;;;28.00;;
41921;SDS011;27609;51.002;5.354;2023-02-15T17:58:55;67.53;;;31.23;;
41921;SDS011;27609;51.002;5.354;2023-02-15T18:01:24;57.78;;;31.27;;
41921;SDS011;27609;51.002;5.354;2023-02-15T18:04:08;58.70;;;28.92;;
41921;SDS011;27609;51.002;5.354;2023-02-15T18:06:55;59.15;;;29.83;;
41921;SDS011;27609;51.002;5.354;2023-02-15T18:09:40;55.85;;;29.00;;
41921;SDS011;27609;51.002;5.354;2023-02-15T18:12:25;60.47;;;31.25;;
41921;SDS011;27609;51.002;5.354;2023-02-15T18:14:58;57.60;;;29.15;;
41921;SDS011;27609;51.002;5.354;2023-02-15T18:17:27;60.20;;;31.33;;
41921;SDS011;27609;51.002;5.354;2023-02-15T18:19:57;59.20;;;31.10;;